sensor_id;sensor_type;location;lat;lon;timestamp;pressure;altitude;pressure_sealevel;temperature;humidity
71764;BME280;59602;52.142;5.408;2023-12-29T00:02:08;100740.25;;;10.04;100.00
71764;BME280;59602;52.142;5.408;2023-12-29T00:04:35;100740.63;;;10.06;100.00
71764;BME280;59602;52.142;5.408;2023-12-29T00:07:02;100727.84;;;10.07;100.00
71764;BME280;59602;52.142;5.408;2023-12-29T00:09:29;100728.63;;;10.07;100.00
71764;BME280;59602;52.142;5.408;2023-12-29T00:11:56;100731.00;;;10.12;100.00
71764;BME280;59602;52.142;5.408;2023-12-29T00:14:23;100721.31;;;10.18;100.00
71764;BME280;59602;52.142;5.408;2023-12-29T00:16:49;100721.28;;;10.15;100.00
71764;BME280;59602;52.142;5.408;2023-12-29T00:19:16;100742.63;;;10.09;100.00
71764;BME280;59602;52.142;5.408;2023-12-29T00:21:43;100742.97;;;10.04;100.00
71764;BME280;59602;52.142;5.408;2023-12-29T00:24:10;100735.94;;;9.96;100.00
71764;BME280;59602;52.142;5.408;2023-12-29T00:26:37;100721.13;;;9.90;100.00
71764;BME280;59602;52.142;5.408;2023-12-29T00:29:03;100733.50;;;9.84;100.00
71764;BME280;59602;52.142;5.408;2023-12-29T00:31:32;100725.34;;;9.80;100.00
71764;BME280;59602;52.142;5.408;2023-12-29T00:33:59;100707.47;;;9.79;100.00
71764;BME280;59602;52.142;5.408;2023-12-29T00:36:26;100722.97;;;9.75;100.00
71764;BME280;59602;52.142;5.408;2023-12-29T00:38:52;100722.97;;;9.75;100.00
71764;BME280;59602;52.142;5.408;2023-12-29T00:41:19;100722.97;;;9.75;100.00
71764;BME280;59602;52.142;5.408;2023-12-29T00:43:46;100717.94;;;9.73;100.00
71764;BME280;59602;52.142;5.408;2023-12-29T00:46:14;100705.53;;;9.76;100.00
71764;BME280;59602;52.142;5.408;2023-12-29T00:48:42;100704.72;;;9.75;100.00
71764;BME280;59602;52.142;5.408;2023-12-29T00:51:10;100686.53;;;9.80;100.00
71764;BME280;59602;52.142;5.408;2023-12-29T00:53:37;100686.56;;;9.83;100.00
71764;BME280;59602;52.142;5.408;2023-12-29T00:56:10;100697.06;;;9.85;100.00
71764;BME280;59602;52.142;5.408;2023-12-29T00:58:37;100700.94;;;9.87;100.00
71764;BME280;59602;52.142;5.408;2023-12-29T01:01:08;100697.50;;;9.94;100.00
71764;BME280;59602;52.142;5.408;2023-12-29T01:03:37;100702.94;;;9.97;100.00
71764;BME280;59602;52.142;5.408;2023-12-29T01:06:04;100697.09;;;9.95;100.00
71764;BME280;59602;52.142;5.408;2023-12-29T01:08:31;100701.41;;;9.96;100.00
71764;BME280;59602;52.142;5.408;2023-12-29T01:11:00;100697.50;;;9.97;100.00
71764;BME280;59602;52.142;5.408;2023-12-29T01:13:27;100695.59;;;9.98;100.00
71764;BME280;59602;52.142;5.408;2023-12-29T01:15:54;100700.25;;;10.01;100.00
71764;BME280;59602;52.142;5.408;2023-12-29T01:18:21;100710.34;;;10.04;100.00
71764;BME280;59602;52.142;5.408;2023-12-29T01:20:48;100701.84;;;10.06;100.00
71764;BME280;59602;52.142;5.408;2023-12-29T01:23:14;100684.78;;;10.09;100.00
71764;BME280;59602;52.142;5.408;2023-12-29T01:25:41;100688.28;;;10.09;100.00
71764;BME280;59602;52.142;5.408;2023-12-29T01:28:08;100701.06;;;10.09;100.00
71764;BME280;59602;52.142;5.408;2023-12-29T01:30:34;100693.31;;;10.07;100.00
71764;BME280;59602;52.142;5.408;2023-12-29T01:33:01;100687.47;;;10.09;100.00
71764;BME280;59602;52.142;5.408;2023-12-29T01:35:29;100673.53;;;10.10;100.00
71764;BME280;59602;52.142;5.408;2023-12-29T01:37:56;100667.31;;;10.10;100.00
71764;BME280;59602;52.142;5.408;2023-12-29T01:40:23;100667.31;;;10.10;100.00
71764;BME280;59602;52.142;5.408;2023-12-29T01:42:50;100684.00;;;10.08;100.00
71764;BME280;59602;52.142;5.408;2023-12-29T01:45:24;100689.44;;;10.08;100.00
71764;BME280;59602;52.142;5.408;2023-12-29T01:47:53;100675.47;;;10.10;100.00
71764;BME280;59602;52.142;5.408;2023-12-29T01:50:21;100688.28;;;10.09;100.00
71764;BME280;59602;52.142;5.408;2023-12-29T01:52:50;100684.41;;;10.10;100.00
71764;BME280;59602;52.142;5.408;2023-12-29T01:55:20;100689.06;;;10.10;100.00
71764;BME280;59602;52.142;5.408;2023-12-29T01:57:49;100676.63;;;10.09;100.00
71764;BME280;59602;52.142;5.408;2023-12-29T02:00:17;100686.72;;;10.08;100.00
71764;BME280;59602;52.142;5.408;2023-12-29T02:02:46;100692.16;;;10.08;100.00
71764;BME280;59602;52.142;5.408;2023-12-29T02:05:14;100696.81;;;10.08;100.00
71764;BME280;59602;52.142;5.408;2023-12-29T02:07:43;100699.91;;;10.06;100.00
71764;BME280;59602;52.142;5.408;2023-12-29T02:10:10;100675.84;;;10.05;100.00
71764;BME280;59602;52.142;5.408;2023-12-29T02:12:40;100689.44;;;10.05;100.00
71764;BME280;59602;52.142;5.408;2023-12-29T02:15:08;100706.91;;;10.07;100.00
71764;BME280;59602;52.142;5.408;2023-12-29T02:17:41;100696.03;;;10.07;100.00
71764;BME280;59602;52.142;5.408;2023-12-29T02:20:11;100699.91;;;10.06;100.00
71764;BME280;59602;52.142;5.408;2023-12-29T02:22:38;100687.47;;;10.05;100.00
71764;BME280;59602;52.142;5.408;2023-12-29T02:25:05;100696.81;;;10.08;100.00
71764;BME280;59602;52.142;5.408;2023-12-29T02:30:18;100696.03;;;10.07;100.00
71764;BME280;59602;52.142;5.408;2023-12-29T02:32:50;100715.06;;;10.07;100.00
71764;BME280;59602;52.142;5.408;2023-12-29T02:35:23;100702.25;;;10.08;100.00
71764;BME280;59602;52.142;5.408;2023-12-29T02:37:52;100687.09;;;10.07;100.00
71764;BME280;59602;52.142;5.408;2023-12-29T02:40:20;100692.16;;;10.05;100.00
71764;BME280;59602;52.142;5.408;2023-12-29T02:42:48;100692.16;;;10.05;100.00
71764;BME280;59602;52.142;5.408;2023-12-29T02:45:16;100708.41;;;10.01;100.00
71764;BME280;59602;52.142;5.408;2023-12-29T02:47:43;100702.56;;;9.99;100.00
71764;BME280;59602;52.142;5.408;2023-12-29T02:50:11;100693.66;;;9.98;100.00
71764;BME280;59602;52.142;5.408;2023-12-29T02:52:38;100692.47;;;10.00;100.00
71764;BME280;59602;52.142;5.408;2023-12-29T02:55:05;100705.66;;;9.97;100.00
71764;BME280;59602;52.142;5.408;2023-12-29T02:57:32;100699.47;;;9.97;100.00
71764;BME280;59602;52.142;5.408;2023-12-29T02:59:59;100682.75;;;9.95;100.00
71764;BME280;59602;52.142;5.408;2023-12-29T03:02:26;100681.19;;;9.90;100.00
71764;BME280;59602;52.142;5.408;2023-12-29T03:04:52;100688.91;;;9.88;100.00
71764;BME280;59602;52.142;5.408;2023-12-29T03:07:19;100699.00;;;9.88;100.00
71764;BME280;59602;52.142;5.408;2023-12-29T03:09:46;100682.69;;;9.84;100.00
71764;BME280;59602;52.142;5.408;2023-12-29T03:12:14;100686.97;;;9.85;100.00
71764;BME280;59602;52.142;5.408;2023-12-29T03:14:40;100688.88;;;9.81;100.00
71764;BME280;59602;52.142;5.408;2023-12-29T03:17:07;100707.47;;;9.79;100.00
71764;BME280;59602;52.142;5.408;2023-12-29T03:19:34;100692.31;;;9.74;100.00
71764;BME280;59602;52.142;5.408;2023-12-29T03:22:01;100714.03;;;9.74;100.00
71764;BME280;59602;52.142;5.408;2023-12-29T03:24:29;100697.34;;;9.72;100.00
71764;BME280;59602;52.142;5.408;2023-12-29T03:26:56;100699.69;;;9.74;100.00
71764;BME280;59602;52.142;5.408;2023-12-29T03:29:23;100705.13;;;9.74;100.00
71764;BME280;59602;52.142;5.408;2023-12-29T03:31:51;100698.13;;;9.73;100.00
71764;BME280;59602;52.142;5.408;2023-12-29T03:34:18;100698.50;;;9.71;100.00
71764;BME280;59602;52.142;5.408;2023-12-29T03:36:46;100703.53;;;9.69;100.00
71764;BME280;59602;52.142;5.408;2023-12-29T03:39:13;100705.06;;;9.67;100.00
71764;BME280;59602;52.142;5.408;2023-12-29T03:41:40;100688.38;;;9.65;100.00
71764;BME280;59602;52.142;5.408;2023-12-29T03:44:07;100703.88;;;9.64;100.00
71764;BME280;59602;52.142;5.408;2023-12-29T03:46:33;100696.13;;;9.66;100.00
71764;BME280;59602;52.142;5.408;2023-12-29T03:49:01;100707.78;;;9.67;100.00
71764;BME280;59602;52.142;5.408;2023-12-29T03:51:28;100697.66;;;9.64;100.00
71764;BME280;59602;52.142;5.408;2023-12-29T03:53:55;100687.19;;;9.62;100.00
71764;BME280;59602;52.142;5.408;2023-12-29T03:56:21;100675.13;;;9.60;100.00
71764;BME280;59602;52.142;5.408;2023-12-29T03:58:48;100684.09;;;9.60;100.00
71764;BME280;59602;52.142;5.408;2023-12-29T04:01:16;100682.50;;;9.59;100.00
71764;BME280;59602;52.142;5.408;2023-12-29T04:03:44;100680.56;;;9.60;100.00
71764;BME280;59602;52.142;5.408;2023-12-29T04:06:11;100691.47;;;9.63;100.00
71764;BME280;59602;52.142;5.408;2023-12-29T04:08:38;100675.22;;;9.67;100.00
71764;BME280;59602;52.142;5.408;2023-12-29T04:11:05;100674.81;;;9.65;100.00
71764;BME280;59602;52.142;5.408;2023-12-29T04:13:32;100668.97;;;9.63;100.00
71764;BME280;59602;52.142;5.408;2023-12-29T04:15:59;100669.72;;;9.60;100.00
71764;BME280;59602;52.142;5.408;2023-12-29T04:18:26;100657.31;;;9.59;100.00
71764;BME280;59602;52.142;5.408;2023-12-29T04:20:53;100665.41;;;9.55;100.00
71764;BME280;59602;52.142;5.408;2023-12-29T04:23:20;100667.75;;;9.56;100.00
71764;BME280;59602;52.142;5.408;2023-12-29T04:25:46;100663.50;;;9.55;100.00
71764;BME280;59602;52.142;5.408;2023-12-29T04:28:13;100662.34;;;9.56;100.00
71764;BME280;59602;52.142;5.408;2023-12-29T04:30:40;100668.53;;;9.53;100.00
71764;BME280;59602;52.142;5.408;2023-12-29T04:33:07;100671.59;;;9.52;100.00
71764;BME280;59602;52.142;5.408;2023-12-29T04:35:33;100666.53;;;9.50;100.00
71764;BME280;59602;52.142;5.408;2023-12-29T04:38:00;100670.44;;;9.53;100.00
71764;BME280;59602;52.142;5.408;2023-12-29T04:40:27;100669.28;;;9.54;100.00
71764;BME280;59602;52.142;5.408;2023-12-29T04:42:54;100676.28;;;9.55;100.00
71764;BME280;59602;52.142;5.408;2023-12-29T04:45:21;100677.06;;;9.55;100.00
71764;BME280;59602;52.142;5.408;2023-12-29T04:47:48;100685.22;;;9.55;100.00
71764;BME280;59602;52.142;5.408;2023-12-29T04:50:15;100684.81;;;9.57;100.00
71764;BME280;59602;52.142;5.408;2023-12-29T04:52:41;100672.03;;;9.57;100.00
71764;BME280;59602;52.142;5.408;2023-12-29T04:55:08;100665.09;;;9.60;100.00
71764;BME280;59602;52.142;5.408;2023-12-29T04:57:35;100668.56;;;9.61;100.00
71764;BME280;59602;52.142;5.408;2023-12-29T05:00:02;100662.75;;;9.62;100.00
71764;BME280;59602;52.142;5.408;2023-12-29T05:02:31;100654.22;;;9.60;100.00
71764;BME280;59602;52.142;5.408;2023-12-29T05:04:57;100664.31;;;9.63;100.00
71764;BME280;59602;52.142;5.408;2023-12-29T05:07:24;100655.41;;;9.63;100.00
71764;BME280;59602;52.142;5.408;2023-12-29T05:09:51;100649.56;;;9.64;100.00
71764;BME280;59602;52.142;5.408;2023-12-29T05:12:18;100661.66;;;9.67;100.00
71764;BME280;59602;52.142;5.408;2023-12-29T05:14:45;100651.56;;;9.67;100.00
71764;BME280;59602;52.142;5.408;2023-12-29T05:17:11;100648.06;;;9.70;100.00
71764;BME280;59602;52.142;5.408;2023-12-29T05:19:38;100651.19;;;9.72;100.00
71764;BME280;59602;52.142;5.408;2023-12-29T05:22:05;100657.00;;;9.71;100.00
71764;BME280;59602;52.142;5.408;2023-12-29T05:24:32;100660.88;;;9.70;100.00
71764;BME280;59602;52.142;5.408;2023-12-29T05:26:58;100666.31;;;9.70;100.00
71764;BME280;59602;52.142;5.408;2023-12-29T05:29:25;100658.16;;;9.70;100.00
71764;BME280;59602;52.142;5.408;2023-12-29T05:31:52;100658.94;;;9.70;100.00
71764;BME280;59602;52.142;5.408;2023-12-29T05:34:19;100669.44;;;9.72;100.00
71764;BME280;59602;52.142;5.408;2023-12-29T05:36:46;100667.47;;;9.72;100.00
71764;BME280;59602;52.142;5.408;2023-12-29T05:39:16;100673.69;;;9.73;100.00
71764;BME280;59602;52.142;5.408;2023-12-29T05:41:43;100663.63;;;9.73;100.00
71764;BME280;59602;52.142;5.408;2023-12-29T05:44:10;100653.13;;;9.75;100.00
71764;BME280;59602;52.142;5.408;2023-12-29T05:46:37;100647.72;;;9.75;100.00
71764;BME280;59602;52.142;5.408;2023-12-29T05:49:03;100657.78;;;9.75;100.00
71764;BME280;59602;52.142;5.408;2023-12-29T05:51:30;100665.16;;;9.74;100.00
71764;BME280;59602;52.142;5.408;2023-12-29T05:53:57;100658.56;;;9.75;100.00
71764;BME280;59602;52.142;5.408;2023-12-29T05:56:24;100664.00;;;9.75;100.00
71764;BME280;59602;52.142;5.408;2023-12-29T05:58:52;100664.81;;;9.76;100.00
71764;BME280;59602;52.142;5.408;2023-12-29T06:01:19;100662.88;;;9.76;100.00
71764;BME280;59602;52.142;5.408;2023-12-29T06:03:47;100659.38;;;9.76;100.00
71764;BME280;59602;52.142;5.408;2023-12-29T06:06:14;100654.72;;;9.76;100.00
71764;BME280;59602;52.142;5.408;2023-12-29T06:08:40;100657.78;;;9.75;100.00
71764;BME280;59602;52.142;5.408;2023-12-29T06:11:07;100660.91;;;9.73;100.00
71764;BME280;59602;52.142;5.408;2023-12-29T06:13:34;100650.41;;;9.72;100.00
71764;BME280;59602;52.142;5.408;2023-12-29T06:16:01;100660.50;;;9.75;100.00
71764;BME280;59602;52.142;5.408;2023-12-29T06:18:28;100676.44;;;9.76;100.00
71764;BME280;59602;52.142;5.408;2023-12-29T06:20:55;100671.78;;;9.77;100.00
71764;BME280;59602;52.142;5.408;2023-12-29T06:23:21;100665.22;;;9.78;100.00
71764;BME280;59602;52.142;5.408;2023-12-29T06:25:48;100663.66;;;9.81;100.00
71764;BME280;59602;52.142;5.408;2023-12-29T06:28:15;100664.06;;;9.83;100.00
71764;BME280;59602;52.142;5.408;2023-12-29T06:30:42;100669.91;;;9.85;100.00
71764;BME280;59602;52.142;5.408;2023-12-29T06:33:09;100681.53;;;9.85;100.00
71764;BME280;59602;52.142;5.408;2023-12-29T06:35:36;100663.31;;;9.86;100.00
71764;BME280;59602;52.142;5.408;2023-12-29T06:38:05;100659.81;;;9.85;100.00
71764;BME280;59602;52.142;5.408;2023-12-29T06:40:32;100667.97;;;9.85;100.00
71764;BME280;59602;52.142;5.408;2023-12-29T06:42:59;100676.50;;;9.87;100.00
71764;BME280;59602;52.142;5.408;2023-12-29T06:45:26;100659.44;;;9.87;100.00
71764;BME280;59602;52.142;5.408;2023-12-29T06:47:53;100669.50;;;9.86;100.00
71764;BME280;59602;52.142;5.408;2023-12-29T06:50:20;100654.38;;;9.85;100.00
71764;BME280;59602;52.142;5.408;2023-12-29T06:52:46;100646.59;;;9.84;100.00
71764;BME280;59602;52.142;5.408;2023-12-29T06:55:13;100668.72;;;9.86;100.00
71764;BME280;59602;52.142;5.408;2023-12-29T06:57:40;100657.88;;;9.86;100.00
71764;BME280;59602;52.142;5.408;2023-12-29T07:00:07;100655.13;;;9.82;100.00
71764;BME280;59602;52.142;5.408;2023-12-29T07:02:38;100650.88;;;9.81;100.00
71764;BME280;59602;52.142;5.408;2023-12-29T07:05:06;100665.97;;;9.82;100.00
71764;BME280;59602;52.142;5.408;2023-12-29T07:07:37;100654.75;;;9.80;100.00
71764;BME280;59602;52.142;5.408;2023-12-29T07:10:05;100651.25;;;9.83;100.00
71764;BME280;59602;52.142;5.408;2023-12-29T07:12:32;100650.88;;;9.81;100.00
71764;BME280;59602;52.142;5.408;2023-12-29T07:14:59;100666.38;;;9.81;100.00
71764;BME280;59602;52.142;5.408;2023-12-29T07:17:31;100653.94;;;9.80;100.00
71764;BME280;59602;52.142;5.408;2023-12-29T07:19:58;100655.88;;;9.79;100.00
71764;BME280;59602;52.142;5.408;2023-12-29T07:22:25;100656.66;;;9.80;100.00
71764;BME280;59602;52.142;5.408;2023-12-29T07:24:55;100661.31;;;9.79;100.00
71764;BME280;59602;52.142;5.408;2023-12-29T07:27:22;100648.50;;;9.80;100.00
71764;BME280;59602;52.142;5.408;2023-12-29T07:29:48;100655.13;;;9.79;100.00
71764;BME280;59602;52.142;5.408;2023-12-29T07:32:15;100664.41;;;9.77;100.00
71764;BME280;59602;52.142;5.408;2023-12-29T07:34:42;100674.13;;;9.79;100.00
71764;BME280;59602;52.142;5.408;2023-12-29T07:37:10;100686.53;;;9.80;100.00
71764;BME280;59602;52.142;5.408;2023-12-29T07:39:37;100665.97;;;9.79;100.00
71764;BME280;59602;52.142;5.408;2023-12-29T07:42:04;100665.22;;;9.78;100.00
71764;BME280;59602;52.142;5.408;2023-12-29T07:44:32;100676.44;;;9.76;100.00
71764;BME280;59602;52.142;5.408;2023-12-29T07:46:59;100664.81;;;9.76;100.00
71764;BME280;59602;52.142;5.408;2023-12-29T07:49:25;100666.72;;;9.75;100.00
71764;BME280;59602;52.142;5.408;2023-12-29T07:51:53;100670.22;;;9.76;100.00
71764;BME280;59602;52.142;5.408;2023-12-29T07:54:20;100673.72;;;9.76;100.00
71764;BME280;59602;52.142;5.408;2023-12-29T07:56:47;100669.44;;;9.75;100.00
71764;BME280;59602;52.142;5.408;2023-12-29T07:59:13;100677.22;;;9.77;100.00
71764;BME280;59602;52.142;5.408;2023-12-29T08:01:40;100680.69;;;9.77;100.00
71764;BME280;59602;52.142;5.408;2023-12-29T08:04:07;100682.63;;;9.77;100.00
71764;BME280;59602;52.142;5.408;2023-12-29T08:06:39;100684.59;;;9.76;100.00
71764;BME280;59602;52.142;5.408;2023-12-29T08:09:06;100690.78;;;9.77;100.00
71764;BME280;59602;52.142;5.408;2023-12-29T08:11:33;100685.34;;;9.77;100.00
71764;BME280;59602;52.142;5.408;2023-12-29T08:14:01;100688.47;;;9.79;100.00
71764;BME280;59602;52.142;5.408;2023-12-29T08:16:28;100674.53;;;9.81;100.00
71764;BME280;59602;52.142;5.408;2023-12-29T08:18:54;100671.81;;;9.81;100.00
71764;BME280;59602;52.142;5.408;2023-12-29T08:21:22;100688.50;;;9.83;100.00
71764;BME280;59602;52.142;5.408;2023-12-29T08:23:49;100688.50;;;9.83;100.00
71764;BME280;59602;52.142;5.408;2023-12-29T08:26:16;100689.28;;;9.83;100.00
71764;BME280;59602;52.142;5.408;2023-12-29T08:28:43;100692.78;;;9.84;100.00
71764;BME280;59602;52.142;5.408;2023-12-29T08:31:11;100693.94;;;9.83;100.00
71764;BME280;59602;52.142;5.408;2023-12-29T08:33:38;100691.22;;;9.83;100.00
71764;BME280;59602;52.142;5.408;2023-12-29T08:36:05;100685.38;;;9.81;100.00
71764;BME280;59602;52.142;5.408;2023-12-29T08:38:33;100695.47;;;9.80;100.00
71764;BME280;59602;52.142;5.408;2023-12-29T08:40:59;100691.97;;;9.80;100.00
71764;BME280;59602;52.142;5.408;2023-12-29T08:43:26;100701.28;;;9.79;100.00
71764;BME280;59602;52.142;5.408;2023-12-29T08:45:53;100697.38;;;9.80;100.00
71764;BME280;59602;52.142;5.408;2023-12-29T08:48:21;100690.06;;;9.80;100.00
71764;BME280;59602;52.142;5.408;2023-12-29T08:50:49;100683.84;;;9.83;100.00
71764;BME280;59602;52.142;5.408;2023-12-29T08:53:16;100681.91;;;9.84;100.00
71764;BME280;59602;52.142;5.408;2023-12-29T08:55:43;100699.38;;;9.86;100.00
71764;BME280;59602;52.142;5.408;2023-12-29T08:58:12;100690.81;;;9.84;100.00
71764;BME280;59602;52.142;5.408;2023-12-29T09:00:39;100694.69;;;9.80;100.00
71764;BME280;59602;52.142;5.408;2023-12-29T09:03:07;100689.66;;;9.78;100.00
71764;BME280;59602;52.142;5.408;2023-12-29T09:05:34;100694.66;;;9.76;100.00
71764;BME280;59602;52.142;5.408;2023-12-29T09:08:00;100677.97;;;9.74;100.00
71764;BME280;59602;52.142;5.408;2023-12-29T09:10:28;100686.50;;;9.72;100.00
71764;BME280;59602;52.142;5.408;2023-12-29T09:12:54;100694.25;;;9.74;100.00
71764;BME280;59602;52.142;5.408;2023-12-29T09:15:21;100689.59;;;9.74;100.00
71764;BME280;59602;52.142;5.408;2023-12-29T09:17:48;100689.59;;;9.74;100.00
71764;BME280;59602;52.142;5.408;2023-12-29T09:20:16;100689.25;;;9.76;100.00
71764;BME280;59602;52.142;5.408;2023-12-29T09:22:43;100692.34;;;9.78;100.00
71764;BME280;59602;52.142;5.408;2023-12-29T09:25:10;100695.47;;;9.80;100.00
71764;BME280;59602;52.142;5.408;2023-12-29T09:27:37;100696.25;;;9.81;100.00
71764;BME280;59602;52.142;5.408;2023-12-29T09:30:04;100702.09;;;9.83;100.00
71764;BME280;59602;52.142;5.408;2023-12-29T09:32:31;100701.72;;;9.88;100.00
71764;BME280;59602;52.142;5.408;2023-12-29T09:34:58;100713.00;;;9.93;100.00
71764;BME280;59602;52.142;5.408;2023-12-29T09:37:25;100727.38;;;9.97;100.00
71764;BME280;59602;52.142;5.408;2023-12-29T09:39:52;100722.34;;;10.00;100.00
71764;BME280;59602;52.142;5.408;2023-12-29T09:42:21;100723.16;;;10.04;100.00
71764;BME280;59602;52.142;5.408;2023-12-29T09:44:51;100717.78;;;10.07;100.00
71764;BME280;59602;52.142;5.408;2023-12-29T09:47:25;100717.00;;;10.10;100.00
71764;BME280;59602;52.142;5.408;2023-12-29T09:49:52;100713.16;;;10.11;100.00
71764;BME280;59602;52.142;5.408;2023-12-29T09:52:21;100711.59;;;10.14;100.00
71764;BME280;59602;52.142;5.408;2023-12-29T09:54:51;100710.47;;;10.18;100.00
71764;BME280;59602;52.142;5.408;2023-12-29T09:57:19;100719.78;;;10.21;100.00
71764;BME280;59602;52.142;5.408;2023-12-29T09:59:48;100726.03;;;10.25;100.00
71764;BME280;59602;52.142;5.408;2023-12-29T10:02:20;100733.78;;;10.27;100.00
71764;BME280;59602;52.142;5.408;2023-12-29T10:04:49;100719.03;;;10.28;100.00
71764;BME280;59602;52.142;5.408;2023-12-29T10:07:26;100715.56;;;10.27;100.00
71764;BME280;59602;52.142;5.408;2023-12-29T10:09:55;100707.44;;;10.31;100.00
71764;BME280;59602;52.142;5.408;2023-12-29T10:12:24;100715.59;;;10.31;100.00
71764;BME280;59602;52.142;5.408;2023-12-29T10:15:01;100708.59;;;10.33;100.00
71764;BME280;59602;52.142;5.408;2023-12-29T10:23:08;100711.38;;;10.44;100.00
71764;BME280;59602;52.142;5.408;2023-12-29T10:25:39;100716.84;;;10.48;100.00
71764;BME280;59602;52.142;5.408;2023-12-29T10:28:07;100715.69;;;10.49;100.00
71764;BME280;59602;52.142;5.408;2023-12-29T10:30:36;100714.53;;;10.50;100.00
71764;BME280;59602;52.142;5.408;2023-12-29T10:33:07;100715.69;;;10.49;100.00
71764;BME280;59602;52.142;5.408;2023-12-29T10:35:36;100718.78;;;10.51;100.00
71764;BME280;59602;52.142;5.408;2023-12-29T10:38:11;100710.25;;;10.56;100.00
71764;BME280;59602;52.142;5.408;2023-12-29T10:40:41;100722.34;;;10.58;100.00
71764;BME280;59602;52.142;5.408;2023-12-29T10:43:09;100736.34;;;10.61;100.00
71764;BME280;59602;52.142;5.408;2023-12-29T10:45:37;100726.22;;;10.61;100.00
71764;BME280;59602;52.142;5.408;2023-12-29T10:48:05;100722.72;;;10.64;100.00
71764;BME280;59602;52.142;5.408;2023-12-29T10:50:45;100731.28;;;10.66;100.00
71764;BME280;59602;52.142;5.408;2023-12-29T10:53:16;100733.22;;;10.69;100.00
71764;BME280;59602;52.142;5.408;2023-12-29T10:55:45;100735.56;;;10.71;100.00
71764;BME280;59602;52.142;5.408;2023-12-29T10:58:18;100740.25;;;10.70;100.00
71764;BME280;59602;52.142;5.408;2023-12-29T11:00:46;100742.97;;;10.70;100.00
71764;BME280;59602;52.142;5.408;2023-12-29T11:03:17;100735.59;;;10.67;100.00
71764;BME280;59602;52.142;5.408;2023-12-29T11:05:46;100739.03;;;10.64;100.00
71764;BME280;59602;52.142;5.408;2023-12-29T11:08:18;100743.72;;;10.64;100.00
71764;BME280;59602;52.142;5.408;2023-12-29T11:10:48;100746.84;;;10.66;100.00
71764;BME280;59602;52.142;5.408;2023-12-29T11:13:21;100744.47;;;10.64;100.00
71764;BME280;59602;52.142;5.408;2023-12-29T11:15:53;100740.63;;;10.65;100.00
71764;BME280;59602;52.142;5.408;2023-12-29T11:18:25;100742.94;;;10.67;100.00
71764;BME280;59602;52.142;5.408;2023-12-29T11:21:04;100750.34;;;10.70;100.00
71764;BME280;59602;52.142;5.408;2023-12-29T11:23:31;100762.41;;;10.72;100.00
71764;BME280;59602;52.142;5.408;2023-12-29T11:25:59;100764.75;;;10.74;100.00
71764;BME280;59602;52.142;5.408;2023-12-29T11:28:28;100755.03;;;10.76;100.00
71764;BME280;59602;52.142;5.408;2023-12-29T11:30:55;100769.41;;;10.80;100.00
71764;BME280;59602;52.142;5.408;2023-12-29T11:33:25;100749.63;;;10.84;100.00
71764;BME280;59602;52.142;5.408;2023-12-29T11:35:57;100760.91;;;10.86;100.00
71764;BME280;59602;52.142;5.408;2023-12-29T11:39:02;100755.06;;;10.91;100.00
71764;BME280;59602;52.142;5.408;2023-12-29T11:41:42;100759.75;;;10.90;100.00
71764;BME280;59602;52.142;5.408;2023-12-29T11:44:11;100761.28;;;10.91;100.00
71764;BME280;59602;52.142;5.408;2023-12-29T11:46:39;100753.94;;;10.92;100.00
71764;BME280;59602;52.142;5.408;2023-12-29T11:49:11;100764.41;;;10.93;100.00
71764;BME280;59602;52.142;5.408;2023-12-29T11:51:58;100757.41;;;10.96;100.00
71764;BME280;59602;52.142;5.408;2023-12-29T11:54:26;100756.28;;;10.97;100.00
71764;BME280;59602;52.142;5.408;2023-12-29T11:56:55;100758.63;;;10.98;100.00
71764;BME280;59602;52.142;5.408;2023-12-29T11:59:30;100754.72;;;10.99;100.00
71764;BME280;59602;52.142;5.408;2023-12-29T12:01:58;100755.13;;;11.01;100.00
71764;BME280;59602;52.142;5.408;2023-12-29T12:04:43;100755.91;;;11.02;100.00
71764;BME280;59602;52.142;5.408;2023-12-29T12:12:48;100765.59;;;10.99;98.96
71764;BME280;59602;52.142;5.408;2023-12-29T12:18:01;100762.50;;;11.01;98.76
71764;BME280;59602;52.142;5.408;2023-12-29T12:20:40;100756.66;;;10.99;97.99
71764;BME280;59602;52.142;5.408;2023-12-29T12:23:17;100754.34;;;11.01;98.48
71764;BME280;59602;52.142;5.408;2023-12-29T12:25:46;100746.97;;;11.01;98.71
71764;BME280;59602;52.142;5.408;2023-12-29T12:28:16;100736.06;;;11.01;98.14
71764;BME280;59602;52.142;5.408;2023-12-29T12:30:43;100743.06;;;11.02;97.83
71764;BME280;59602;52.142;5.408;2023-12-29T12:33:12;100738.81;;;11.05;98.66
71764;BME280;59602;52.142;5.408;2023-12-29T12:35:41;100740.34;;;11.06;97.63
71764;BME280;59602;52.142;5.408;2023-12-29T12:38:14;100746.97;;;11.05;97.01
71764;BME280;59602;52.142;5.408;2023-12-29T12:40:46;100744.25;;;11.05;97.27
71764;BME280;59602;52.142;5.408;2023-12-29T12:43:34;100743.84;;;11.07;96.93
71764;BME280;59602;52.142;5.408;2023-12-29T12:46:03;100732.19;;;11.06;97.39
71764;BME280;59602;52.142;5.408;2023-12-29T12:48:45;100730.25;;;11.07;97.24
71764;BME280;59602;52.142;5.408;2023-12-29T12:51:21;100734.91;;;11.06;96.73
71764;BME280;59602;52.142;5.408;2023-12-29T12:53:48;100736.09;;;11.05;96.60
71764;BME280;59602;52.142;5.408;2023-12-29T12:56:17;100729.47;;;11.06;97.01
71764;BME280;59602;52.142;5.408;2023-12-29T12:58:46;100729.09;;;11.08;97.35
71764;BME280;59602;52.142;5.408;2023-12-29T13:01:14;100719.75;;;11.09;97.49
71764;BME280;59602;52.142;5.408;2023-12-29T13:03:42;100724.06;;;11.10;97.17
71764;BME280;59602;52.142;5.408;2023-12-29T13:06:12;100720.13;;;11.07;97.41
71764;BME280;59602;52.142;5.408;2023-12-29T13:08:39;100722.09;;;11.07;97.04
71764;BME280;59602;52.142;5.408;2023-12-29T13:11:09;100720.53;;;11.09;96.81